Time;durP1;ratioP1;P1;durP2;ratioP2;P2;SDS_P1;SDS_P2;PMS_P1;PMS_P2;Temp;Humidity;BMP_temperature;BMP_pressure;BME280_temperature;BME280_humidity;BME280_pressure;Samples;Min_cycle;Max_cycle;Signal;HPM_P1;HPM_P2
2022/12/28 00:01:39;;;;;;;11.23;2.75;;;18.90;1.00;;;;;;5072496;28;20407;-39
2022/12/28 00:04:06;;;;;;;7.57;1.80;;;18.90;1.00;;;;;;5072177;28;20033;-39
2022/12/28 00:06:33;;;;;;;7.57;2.10;;;18.80;1.00;;;;;;5072269;28;20503;-39
2022/12/28 00:09:01;;;;;;;5.75;2.58;;;18.80;1.00;;;;;;5072411;28;20068;-38
2022/12/28 00:11:28;;;;;;;7.95;2.70;;;18.70;1.00;;;;;;5072206;28;20041;-38
2022/12/28 00:13:59;;;;;;;4.45;1.75;;;18.70;1.00;;;;;;5072272;28;20468;-38
2022/12/28 00:16:34;;;;;;;6.85;1.77;;;18.70;1.00;;;;;;5072257;28;20040;-39
2022/12/28 00:19:04;;;;;;;10.25;2.92;;;18.60;1.00;;;;;;5072276;28;20048;-38
2022/12/28 00:21:31;;;;;;;8.05;2.17;;;18.60;1.00;;;;;;5072163;28;20040;-38
2022/12/28 00:23:59;;;;;;;6.28;1.88;;;18.60;1.00;;;;;;5071716;28;20054;-39
2022/12/28 00:26:28;;;;;;;7.00;2.03;;;18.50;1.00;;;;;;5072001;28;20075;-38
2022/12/28 00:28:55;;;;;;;8.88;2.42;;;18.50;1.00;;;;;;5070772;28;20045;-38
2022/12/28 00:31:31;;;;;;;13.93;2.55;;;18.50;1.00;;;;;;5072022;28;20115;-39
2022/12/28 00:33:58;;;;;;;6.45;2.25;;;18.40;1.00;;;;;;5069458;28;20048;-39
2022/12/28 00:36:25;;;;;;;6.38;1.88;;;18.40;1.00;;;;;;5071781;28;20446;-38
2022/12/28 00:39:11;;;;;;;5.15;1.80;;;18.30;1.00;;;;;;5072063;28;20474;-38
2022/12/28 00:41:38;;;;;;;7.32;1.83;;;18.30;1.00;;;;;;5070686;28;20048;-39
2022/12/28 00:44:07;;;;;;;7.40;1.73;;;18.30;1.00;;;;;;5071565;28;20068;-39
2022/12/28 00:46:34;;;;;;;5.18;1.65;;;18.30;1.00;;;;;;5071584;28;20430;-39
2022/12/28 00:49:00;;;;;;;5.65;2.13;;;18.20;1.00;;;;;;5070567;28;20040;-39
2022/12/28 00:51:27;;;;;;;7.32;2.00;;;18.20;1.00;;;;;;5070541;28;20402;-38
2022/12/28 00:53:54;;;;;;;8.57;2.55;;;18.20;1.00;;;;;;5071447;28;20044;-39
2022/12/28 00:56:22;;;;;;;6.50;1.88;;;18.20;1.00;;;;;;5070331;28;20048;-39
2022/12/28 00:58:49;;;;;;;9.05;2.05;;;18.10;1.00;;;;;;5070327;28;20083;-38
2022/12/28 01:01:21;;;;;;;9.27;2.85;;;18.10;1.00;;;;;;5071510;28;20055;-39
2022/12/28 01:03:49;;;;;;;5.13;1.70;;;18.10;1.00;;;;;;5069926;28;20048;-38
2022/12/28 01:06:18;;;;;;;7.55;2.15;;;18.00;1.00;;;;;;5071580;28;20064;-39
2022/12/28 01:08:45;;;;;;;7.97;1.92;;;18.00;1.00;;;;;;5071531;28;20047;-39
2022/12/28 01:11:24;;;;;;;11.50;3.20;;;18.00;1.00;;;;;;5070178;28;20059;-38
2022/12/28 01:13:55;;;;;;;8.82;2.38;;;17.90;1.00;;;;;;5069852;28;20051;-38
2022/12/28 01:16:28;;;;;;;6.75;1.45;;;17.90;1.00;;;;;;5071615;28;20052;-39
2022/12/28 01:18:59;;;;;;;9.98;1.98;;;17.90;1.00;;;;;;5070246;28;20500;-38
2022/12/28 01:21:28;;;;;;;10.00;2.78;;;17.90;1.00;;;;;;5071632;28;20049;-38
2022/12/28 01:23:57;;;;;;;7.57;2.35;;;17.80;1.00;;;;;;5071123;28;20040;-38
2022/12/28 01:26:25;;;;;;;8.95;2.00;;;17.80;1.00;;;;;;5069902;28;20044;-38
2022/12/28 01:28:54;;;;;;;6.85;2.22;;;17.80;1.00;;;;;;5070199;28;20044;-38
2022/12/28 01:31:22;;;;;;;7.82;3.35;;;17.70;1.00;;;;;;5071374;28;20036;-38
2022/12/28 01:33:49;;;;;;;6.93;2.28;;;17.70;1.00;;;;;;5071062;28;20044;-38
2022/12/28 01:36:19;;;;;;;9.52;2.35;;;17.70;1.00;;;;;;5069908;28;20074;-38
2022/12/28 01:38:47;;;;;;;11.05;2.22;;;17.70;1.00;;;;;;5069937;28;20048;-39
2022/12/28 01:41:16;;;;;;;6.78;1.70;;;17.70;1.00;;;;;;5071257;28;20079;-38
2022/12/28 01:43:44;;;;;;;3.45;1.23;;;17.60;1.00;;;;;;5069598;28;20128;-38
2022/12/28 01:46:18;;;;;;;7.25;2.38;;;17.60;1.00;;;;;;5074014;28;20090;-38
2022/12/28 01:49:05;;;;;;;11.50;3.50;;;17.60;1.00;;;;;;5075455;28;20059;-38
2022/12/28 01:51:45;;;;;;;6.03;2.15;;;17.60;1.00;;;;;;5073661;28;20045;-38
2022/12/28 01:54:12;;;;;;;9.18;2.63;;;17.50;1.00;;;;;;5074808;28;20488;-38
2022/12/28 01:56:40;;;;;;;10.20;2.58;;;17.50;1.00;;;;;;5073553;28;20056;-38
2022/12/28 01:59:07;;;;;;;5.55;2.05;;;17.50;1.00;;;;;;5073642;28;20044;-39
2022/12/28 02:01:35;;;;;;;8.77;2.53;;;17.40;1.00;;;;;;5073409;28;20044;-38
2022/12/28 02:04:03;;;;;;;8.02;1.98;;;17.40;1.00;;;;;;5074445;28;20044;-39
2022/12/28 02:06:30;;;;;;;10.23;2.35;;;17.40;1.00;;;;;;5073483;28;20064;-38
2022/12/28 02:09:05;;;;;;;6.90;2.20;;;17.40;1.00;;;;;;5074747;28;20105;-39
2022/12/28 02:11:33;;;;;;;5.97;1.63;;;17.40;1.00;;;;;;5073274;28;20072;-38
2022/12/28 02:14:01;;;;;;;7.28;1.95;;;17.30;1.00;;;;;;5073074;28;20052;-38
2022/12/28 02:16:28;;;;;;;5.80;2.28;;;17.30;1.00;;;;;;5074613;28;20040;-39
2022/12/28 02:18:55;;;;;;;3.95;1.63;;;17.30;1.00;;;;;;5073137;28;20375;-38
2022/12/28 02:22:00;;;;;;;11.70;2.80;;;17.30;1.00;;;;;;5073117;28;20083;-39
2022/12/28 02:24:45;;;;;;;4.18;1.98;;;17.20;1.00;;;;;;4992441;28;20533;-39
2022/12/28 02:27:40;;;;;;;8.70;2.03;;;17.20;1.00;;;;;;4992733;28;20052;-39
2022/12/28 02:30:09;;;;;;;5.47;1.58;;;17.20;1.00;;;;;;5052542;28;20109;-39
2022/12/28 02:32:47;;;;;;;6.07;1.92;;;17.20;1.00;;;;;;5073044;28;20079;-39
2022/12/28 02:35:23;;;;;;;9.25;2.38;;;17.20;1.00;;;;;;5072981;28;20396;-38
2022/12/28 02:38:13;;;;;;;7.45;1.88;;;17.10;1.00;;;;;;5072967;28;20087;-39
2022/12/28 02:41:11;;;;;;;8.73;2.03;;;17.10;1.00;;;;;;5072866;28;20144;-39
2022/12/28 02:43:38;;;;;;;3.42;1.40;;;17.10;1.00;;;;;;5072595;28;20102;-38
2022/12/28 02:51:59;;;;;;;6.60;2.05;;;17.00;1.00;;;;;;5072692;28;20275;-39
2022/12/28 02:58:01;;;;;;;6.95;1.70;;;17.00;1.00;;;;;;5072734;28;20410;-39
2022/12/28 03:01:03;;;;;;;7.18;1.70;;;16.90;1.00;;;;;;5072540;28;20045;-39
2022/12/28 03:03:41;;;;;;;5.45;2.00;;;16.90;1.00;;;;;;5040670;28;20040;-39
2022/12/28 03:09:51;;;;;;;;;;;16.90;1.00;;;;;;5074088;28;20043;-39
2022/12/28 03:12:25;;;;;;;7.38;1.85;;;16.80;1.00;;;;;;5073477;28;19948;-38
2022/12/28 03:14:58;;;;;;;9.02;2.38;;;16.80;1.00;;;;;;5073443;28;20051;-39
2022/12/28 03:31:42;;;;;;;7.18;2.63;;;16.70;1.00;;;;;;5071869;28;20032;-38
2022/12/28 03:34:13;;;;;;;8.00;2.03;;;16.70;1.00;;;;;;5071451;28;20049;-39
2022/12/28 03:36:58;;;;;;;;;;;16.70;1.00;;;;;;5072118;28;20044;-38
2022/12/28 03:39:37;;;;;;;8.02;2.50;;;16.60;1.00;;;;;;5071660;28;19920;-38
2022/12/28 03:45:27;;;;;;;7.47;2.45;;;16.60;1.00;;;;;;5071461;28;20565;-38
2022/12/28 03:48:16;;;;;;;8.85;2.30;;;16.60;1.00;;;;;;5071508;28;20045;-38
2022/12/28 03:50:46;;;;;;;8.05;2.47;;;16.60;1.00;;;;;;5071455;28;20041;-38
2022/12/28 03:53:18;;;;;;;7.82;2.30;;;16.50;1.00;;;;;;5071200;28;20047;-38
2022/12/28 03:55:47;;;;;;;5.82;1.73;;;16.50;1.00;;;;;;5071376;28;20053;-39
2022/12/28 03:58:17;;;;;;;7.97;2.67;;;16.50;1.00;;;;;;5071425;28;20102;-39
2022/12/28 04:00:44;;;;;;;10.85;2.85;;;16.50;1.00;;;;;;5071497;28;20056;-39
2022/12/28 04:03:11;;;;;;;6.22;2.40;;;16.50;1.00;;;;;;5070805;28;20052;-39
2022/12/28 04:05:38;;;;;;;9.27;2.78;;;16.50;1.00;;;;;;5071107;28;20032;-39
2022/12/28 04:08:05;;;;;;;6.53;2.97;;;16.50;1.00;;;;;;5072240;28;20649;-39
2022/12/28 04:10:32;;;;;;;5.80;2.17;;;16.50;1.00;;;;;;5071156;28;20040;-39
2022/12/28 04:12:59;;;;;;;10.70;3.05;;;16.40;1.00;;;;;;5070638;28;20150;-39
2022/12/28 04:16:04;;;;;;;10.93;2.40;;;16.40;1.00;;;;;;5061003;28;20055;-40
2022/12/28 04:18:33;;;;;;;6.63;2.00;;;16.40;1.00;;;;;;5071051;28;20047;-39
2022/12/28 04:21:00;;;;;;;6.88;2.40;;;16.30;1.00;;;;;;5070854;28;20052;-39
2022/12/28 04:23:27;;;;;;;6.55;2.38;;;16.30;1.00;;;;;;5070546;28;20488;-39
2022/12/28 04:26:12;;;;;;;5.82;2.55;;;16.30;1.00;;;;;;5070934;28;20044;-39
2022/12/28 04:28:42;;;;;;;6.57;1.88;;;16.30;1.00;;;;;;5070951;28;20074;-39
2022/12/28 04:31:40;;;;;;;6.25;1.85;;;16.30;1.00;;;;;;5037909;28;20056;-39
2022/12/28 04:34:11;;;;;;;5.40;1.45;;;16.20;1.00;;;;;;5070514;28;20053;-39
2022/12/28 04:36:45;;;;;;;;;;;16.20;1.00;;;;;;5071125;28;20045;-38
2022/12/28 04:39:16;;;;;;;6.32;1.67;;;16.20;1.00;;;;;;5070596;28;19920;-38
2022/12/28 04:41:42;;;;;;;6.28;2.55;;;16.20;1.00;;;;;;5071940;28;20556;-39
2022/12/28 04:44:09;;;;;;;5.88;1.95;;;16.10;1.00;;;;;;5071424;28;20495;-38
2022/12/28 04:46:36;;;;;;;7.63;1.50;;;16.10;1.00;;;;;;5071576;28;20040;-38
2022/12/28 04:49:03;;;;;;;4.40;1.90;;;16.10;1.00;;;;;;5071801;28;20041;-38
2022/12/28 04:51:30;;;;;;;10.98;3.35;;;16.10;1.00;;;;;;5071678;28;20036;-38
2022/12/28 04:53:57;;;;;;;8.38;1.80;;;16.10;1.00;;;;;;5070362;28;20411;-39
2022/12/28 04:56:26;;;;;;;6.65;2.72;;;16.10;1.00;;;;;;5070644;28;20048;-38
2022/12/28 04:58:57;;;;;;;7.40;2.55;;;16.10;1.00;;;;;;5076858;28;20634;-38
2022/12/28 05:01:25;;;;;;;6.65;1.80;;;16.10;1.00;;;;;;5071633;28;20044;-39
2022/12/28 05:03:53;;;;;;;9.18;2.13;;;16.00;1.00;;;;;;5083234;28;20115;-38
2022/12/28 05:06:26;;;;;;;5.28;2.63;;;16.00;1.00;;;;;;5091675;28;20146;-38
2022/12/28 05:08:53;;;;;;;7.97;1.95;;;16.00;1.00;;;;;;5080869;28;20496;-39
2022/12/28 05:11:23;;;;;;;11.20;1.55;;;16.00;1.00;;;;;;5072425;28;20032;-39
2022/12/28 05:13:50;;;;;;;8.68;2.35;;;16.00;1.00;;;;;;5079571;28;20048;-39
2022/12/28 05:16:20;;;;;;;6.55;2.13;;;16.00;1.00;;;;;;5071427;28;20048;-39
2022/12/28 05:18:47;;;;;;;7.90;2.05;;;16.00;1.00;;;;;;5071538;28;20045;-38
2022/12/28 05:21:16;;;;;;;7.05;1.95;;;16.00;1.00;;;;;;5066940;28;20064;-38
2022/12/28 05:23:44;;;;;;;9.02;2.03;;;15.90;1.00;;;;;;5054908;28;20381;-38
2022/12/28 05:26:13;;;;;;;8.13;2.25;;;16.00;1.00;;;;;;5068680;28;20465;-38
2022/12/28 05:28:40;;;;;;;11.00;3.40;;;15.90;1.00;;;;;;5087211;28;20040;-39
2022/12/28 05:31:12;;;;;;;7.80;1.73;;;15.90;1.00;;;;;;5095885;28;20044;-39
2022/12/28 05:33:39;;;;;;;3.70;1.70;;;15.90;1.00;;;;;;5095368;28;20040;-39
2022/12/28 05:36:09;;;;;;;6.35;1.55;;;15.90;1.00;;;;;;5095510;28;20090;-39
2022/12/28 05:38:36;;;;;;;11.60;2.08;;;15.90;1.00;;;;;;5094353;28;20324;-39
2022/12/28 05:41:06;;;;;;;5.03;2.28;;;15.90;1.00;;;;;;5082431;28;20044;-39
2022/12/28 05:43:34;;;;;;;5.28;1.70;;;15.90;1.00;;;;;;5074821;28;20059;-39
2022/12/28 05:46:09;;;;;;;10.40;1.90;;;15.90;1.00;;;;;;5074954;28;20607;-39
2022/12/28 05:48:38;;;;;;;7.43;1.88;;;15.80;1.00;;;;;;5075073;28;20686;-38
2022/12/28 05:51:08;;;;;;;10.05;2.47;;;15.80;1.00;;;;;;5088788;28;20075;-39
2022/12/28 05:53:36;;;;;;;9.68;1.92;;;15.80;1.00;;;;;;5082908;28;20036;-38
2022/12/28 05:56:09;;;;;;;11.13;2.28;;;15.80;1.00;;;;;;5071031;28;20036;-39
2022/12/28 05:58:44;;;;;;;12.38;2.38;;;15.80;1.00;;;;;;5067124;28;20040;-39
2022/12/28 06:01:14;;;;;;;5.82;1.42;;;15.80;1.00;;;;;;5086526;28;20568;-39
2022/12/28 06:03:41;;;;;;;7.35;2.03;;;15.80;1.00;;;;;;5094787;28;20138;-39
2022/12/28 06:06:09;;;;;;;8.27;2.03;;;15.80;1.00;;;;;;5094828;28;20047;-39
2022/12/28 06:08:37;;;;;;;8.68;1.60;;;15.80;1.00;;;;;;5095147;28;20398;-38
2022/12/28 06:11:06;;;;;;;6.97;1.85;;;15.80;1.00;;;;;;5093730;28;20040;-39
2022/12/28 06:13:33;;;;;;;10.40;2.28;;;15.70;1.00;;;;;;5094702;28;20118;-38
2022/12/28 06:16:08;;;;;;;8.32;2.20;;;15.70;1.00;;;;;;5094564;28;20060;-38
2022/12/28 06:18:35;;;;;;;7.18;1.92;;;15.70;1.00;;;;;;5094880;28;20085;-39
2022/12/28 06:21:05;;;;;;;9.85;2.83;;;15.70;1.00;;;;;;5094680;28;20523;-38
2022/12/28 06:23:32;;;;;;;7.97;1.98;;;15.70;1.00;;;;;;5093228;28;20047;-38
2022/12/28 06:26:00;;;;;;;9.73;2.33;;;15.70;1.00;;;;;;5094641;28;20402;-38
2022/12/28 06:28:27;;;;;;;11.93;2.67;;;15.70;1.00;;;;;;5094537;28;20089;-39
2022/12/28 06:31:21;;;;;;;10.38;2.25;;;15.60;1.00;;;;;;5094450;28;20101;-38
2022/12/28 06:33:55;;;;;;;10.25;2.38;;;15.60;1.00;;;;;;5064169;28;20105;-38
2022/12/28 06:36:31;;;;;;;7.07;2.00;;;15.60;1.00;;;;;;5094580;28;20067;-38
2022/12/28 06:38:59;;;;;;;6.32;1.90;;;15.60;1.00;;;;;;5094452;28;20036;-38
2022/12/28 06:41:27;;;;;;;10.32;2.40;;;15.60;1.00;;;;;;5094357;28;20437;-39
2022/12/28 06:43:54;;;;;;;10.98;2.45;;;15.60;1.00;;;;;;5094334;28;20433;-38
2022/12/28 06:46:23;;;;;;;8.95;2.42;;;15.60;1.00;;;;;;5092860;28;20052;-39
2022/12/28 06:48:51;;;;;;;10.73;2.15;;;15.60;1.00;;;;;;5094298;28;20040;-38
2022/12/28 06:51:24;;;;;;;7.63;1.70;;;15.60;1.00;;;;;;5092809;28;20044;-38
2022/12/28 06:53:52;;;;;;;4.90;1.75;;;15.60;1.00;;;;;;5093904;28;20123;-38
2022/12/28 06:56:20;;;;;;;11.80;2.15;;;15.60;1.00;;;;;;5094030;28;20487;-38
2022/12/28 06:58:48;;;;;;;6.10;1.25;;;15.60;1.00;;;;;;5094462;28;20036;-38
2022/12/28 07:01:21;;;;;;;9.93;2.60;;;15.50;1.00;;;;;;5094007;28;20063;-38
2022/12/28 07:03:50;;;;;;;14.48;2.58;;;15.50;1.00;;;;;;5093936;28;20042;-39
2022/12/28 07:06:18;;;;;;;9.40;1.52;;;15.50;1.00;;;;;;5093848;28;20066;-38
2022/12/28 07:08:46;;;;;;;10.15;2.85;;;15.50;1.00;;;;;;5093854;28;20097;-38
2022/12/28 07:11:16;;;;;;;5.07;1.52;;;15.50;1.00;;;;;;5092877;28;20107;-38
2022/12/28 07:13:43;;;;;;;11.32;2.90;;;15.50;1.00;;;;;;5093456;28;20037;-38
2022/12/28 07:16:15;;;;;;;7.93;2.13;;;15.50;1.00;;;;;;5093590;28;20149;-39
2022/12/28 07:18:43;;;;;;;3.75;1.08;;;15.50;1.00;;;;;;5093728;28;20040;-39
2022/12/28 07:21:16;;;;;;;8.25;1.88;;;15.50;1.00;;;;;;5093595;28;20048;-38
2022/12/28 07:23:43;;;;;;;8.82;1.60;;;15.50;1.00;;;;;;5093358;28;20592;-38
2022/12/28 07:26:13;;;;;;;7.10;1.30;;;15.50;1.00;;;;;;5093426;28;20047;-38
2022/12/28 07:28:42;;;;;;;16.92;2.08;;;15.50;1.00;;;;;;5093435;28;20064;-39
2022/12/28 07:31:12;;;;;;;9.13;1.83;;;15.50;1.00;;;;;;5093424;28;20048;-38
2022/12/28 07:33:39;;;;;;;7.28;1.52;;;15.50;1.00;;;;;;5093097;28;20055;-39
2022/12/28 07:36:09;;;;;;;7.07;2.13;;;15.40;1.00;;;;;;5093128;28;20051;-39
2022/12/28 07:38:35;;;;;;;9.40;2.05;;;15.40;1.00;;;;;;5093265;28;20067;-38
2022/12/28 07:41:08;;;;;;;4.68;1.02;;;15.40;1.00;;;;;;5093170;28;20411;-38
2022/12/28 07:43:35;;;;;;;5.75;1.88;;;15.40;1.00;;;;;;5092199;28;20498;-38
2022/12/28 07:46:04;;;;;;;8.90;1.58;;;15.40;1.00;;;;;;5092926;28;20075;-38
2022/12/28 07:48:32;;;;;;;9.18;2.00;;;15.40;1.00;;;;;;5093219;28;20040;-39
2022/12/28 07:51:09;;;;;;;7.65;1.23;;;15.40;1.00;;;;;;5092931;28;20119;-38
2022/12/28 07:53:37;;;;;;;3.65;1.60;;;15.40;1.00;;;;;;5092532;28;20044;-38
2022/12/28 07:56:05;;;;;;;6.25;2.30;;;15.40;1.00;;;;;;5074600;28;20477;-38
2022/12/28 07:58:32;;;;;;;5.90;1.85;;;15.40;1.00;;;;;;5092959;28;20087;-39
2022/12/28 08:01:03;;;;;;;8.43;2.17;;;15.40;1.00;;;;;;5092594;28;20127;-39
2022/12/28 08:03:30;;;;;;;6.82;1.40;;;15.40;1.00;;;;;;5092453;28;20495;-38
2022/12/28 08:06:23;;;;;;;6.47;2.65;;;15.40;1.00;;;;;;5091313;28;20040;-38
2022/12/28 08:08:53;;;;;;;5.30;1.42;;;15.30;1.00;;;;;;5086759;28;20052;-39
2022/12/28 08:11:23;;;;;;;13.70;1.63;;;15.30;1.00;;;;;;5091060;28;20039;-38
2022/12/28 08:13:52;;;;;;;8.02;1.83;;;15.30;1.00;;;;;;5089768;28;20051;-38
2022/12/28 08:16:21;;;;;;;6.32;1.90;;;15.30;1.00;;;;;;5088552;28;20086;-38
2022/12/28 08:18:48;;;;;;;7.25;1.83;;;15.40;1.00;;;;;;5088142;28;20487;-38
2022/12/28 08:21:19;;;;;;;7.70;2.15;;;15.30;1.00;;;;;;5085708;28;20075;-38
2022/12/28 08:23:46;;;;;;;8.88;2.35;;;15.30;1.00;;;;;;5091425;28;20392;-38
2022/12/28 08:26:21;;;;;;;6.22;1.65;;;15.30;1.00;;;;;;5092165;28;20040;-38
2022/12/28 08:28:50;;;;;;;7.40;1.27;;;15.30;1.00;;;;;;5092229;28;20070;-38
2022/12/28 08:31:23;;;;;;;5.10;1.60;;;15.30;1.00;;;;;;5092056;28;20050;-39
2022/12/28 08:33:51;;;;;;;5.00;1.30;;;15.30;1.00;;;;;;5091899;28;20040;-38
2022/12/28 08:36:18;;;;;;;5.35;1.42;;;15.30;1.00;;;;;;5092091;28;20044;-38
2022/12/28 08:38:45;;;;;;;8.27;1.83;;;15.20;1.00;;;;;;5092027;28;20048;-39
2022/12/28 08:41:19;;;;;;;8.93;2.35;;;15.30;1.00;;;;;;5092019;28;20101;-38
2022/12/28 08:43:46;;;;;;;7.13;1.88;;;15.20;1.00;;;;;;5091639;28;20044;-38
2022/12/28 08:46:16;;;;;;;5.30;1.33;;;15.20;1.00;;;;;;5090626;28;20105;-38
2022/12/28 08:48:44;;;;;;;8.75;1.50;;;15.20;1.00;;;;;;5091974;28;20509;-38
2022/12/28 08:51:12;;;;;;;3.63;1.65;;;15.20;1.00;;;;;;5092027;28;20040;-38
2022/12/28 08:53:40;;;;;;;7.75;2.38;;;15.20;1.00;;;;;;5091459;28;20036;-38
2022/12/28 08:56:27;;;;;;;4.68;1.65;;;15.20;1.00;;;;;;5091068;28;20040;-38
2022/12/28 08:58:55;;;;;;;6.15;2.13;;;15.20;1.00;;;;;;5091945;28;20547;-38
2022/12/28 09:01:22;;;;;;;7.68;1.50;;;15.20;1.00;;;;;;5092048;28;20453;-38
2022/12/28 09:03:51;;;;;;;3.80;1.13;;;15.20;1.00;;;;;;5091355;28;20068;-38
2022/12/28 09:06:24;;;;;;;5.15;1.30;;;15.20;1.00;;;;;;5091884;28;20040;-38
2022/12/28 09:08:52;;;;;;;4.53;1.20;;;15.20;1.00;;;;;;5091733;28;20072;-38
2022/12/28 09:11:35;;;;;;;6.60;1.33;;;15.20;1.00;;;;;;5091713;28;20047;-38
2022/12/28 09:14:04;;;;;;;5.05;1.60;;;15.20;1.00;;;;;;5091567;28;20044;-38
2022/12/28 09:16:31;;;;;;;5.60;1.50;;;15.20;1.00;;;;;;5091600;28;20078;-39
2022/12/28 09:19:00;;;;;;;4.57;1.40;;;15.20;1.00;;;;;;5091565;28;20052;-38
2022/12/28 09:21:30;;;;;;;6.05;2.10;;;15.20;1.00;;;;;;5091555;28;20457;-38
2022/12/28 09:23:57;;;;;;;5.18;1.10;;;15.20;1.00;;;;;;5091268;28;20036;-38
2022/12/28 09:26:32;;;;;;;4.70;1.25;;;15.20;1.00;;;;;;5091495;28;20510;-38
2022/12/28 09:29:02;;;;;;;7.07;1.75;;;15.20;1.00;;;;;;5091576;28;20036;-38
2022/12/28 09:31:31;;;;;;;6.10;1.38;;;15.20;1.00;;;;;;5091483;28;20044;-38
2022/12/28 09:33:59;;;;;;;5.60;2.03;;;15.20;1.00;;;;;;5091090;28;20070;-38
2022/12/28 09:36:46;;;;;;;5.00;1.05;;;15.20;1.00;;;;;;5091238;28;20112;-38
2022/12/28 09:39:16;;;;;;;23.65;1.75;;;15.10;1.00;;;;;;5091555;28;20044;-38
2022/12/28 09:41:47;;;;;;;6.22;1.55;;;15.10;1.00;;;;;;5091386;28;20122;-38
2022/12/28 09:44:23;;;;;;;6.97;1.35;;;15.10;1.00;;;;;;5091095;28;20405;-38
2022/12/28 09:47:01;;;;;;;7.85;1.35;;;15.10;1.00;;;;;;5091060;28;20037;-38
2022/12/28 09:49:42;;;;;;;4.70;1.45;;;15.10;1.00;;;;;;5091542;28;20045;-38
2022/12/28 09:52:22;;;;;;;5.22;1.33;;;15.10;1.00;;;;;;5091245;28;20097;-38
2022/12/28 09:54:49;;;;;;;4.88;1.48;;;15.10;1.00;;;;;;5091212;28;20040;-38
2022/12/28 09:57:18;;;;;;;3.88;1.30;;;15.10;1.00;;;;;;5091153;28;20040;-38
2022/12/28 09:59:47;;;;;;;3.35;1.25;;;15.10;1.00;;;;;;5090102;28;20052;-38
2022/12/28 10:02:24;;;;;;;4.30;1.65;;;15.10;1.00;;;;;;5089610;28;20056;-38
2022/12/28 10:04:52;;;;;;;4.30;1.40;;;15.10;1.00;;;;;;5091043;28;20410;-38
2022/12/28 10:07:19;;;;;;;5.32;1.27;;;15.10;1.00;;;;;;5094051;28;20043;-38
2022/12/28 10:09:47;;;;;;;8.13;2.10;;;15.10;1.00;;;;;;5095068;28;20040;-38
2022/12/28 10:12:18;;;;;;;4.53;0.95;;;15.10;1.00;;;;;;5094675;28;20040;-38
2022/12/28 10:14:46;;;;;;;5.60;1.95;;;15.10;1.00;;;;;;5093608;28;20063;-38
2022/12/28 10:17:15;;;;;;;6.07;2.15;;;15.10;1.00;;;;;;5094629;28;20399;-38
2022/12/28 10:19:46;;;;;;;3.95;1.23;;;15.10;1.00;;;;;;5094785;28;20047;-38
2022/12/28 10:22:19;;;;;;;7.65;1.60;;;15.10;1.00;;;;;;5094439;28;20044;-38
2022/12/28 10:24:47;;;;;;;5.77;0.90;;;15.10;1.00;;;;;;5094578;28;20483;-38
2022/12/28 10:27:28;;;;;;;11.13;1.63;;;15.10;1.00;;;;;;5094573;28;20640;-39
2022/12/28 10:29:57;;;;;;;6.57;1.52;;;15.00;1.00;;;;;;5094520;28;20098;-38
2022/12/28 10:32:24;;;;;;;7.15;1.83;;;15.10;1.00;;;;;;5094142;28;20048;-39
2022/12/28 10:34:59;;;;;;;3.50;1.58;;;15.00;1.00;;;;;;5094421;28;20119;-38
2022/12/28 10:37:29;;;;;;;6.15;1.38;;;15.10;1.00;;;;;;5094356;28;20068;-38
2022/12/28 10:39:59;;;;;;;4.72;1.85;;;15.10;1.00;;;;;;5094426;28;20036;-39
2022/12/28 10:42:36;;;;;;;5.85;1.52;;;15.00;1.00;;;;;;5092707;28;20083;-38
2022/12/28 10:45:06;;;;;;;6.93;1.25;;;15.00;1.00;;;;;;5094324;28;20059;-38
2022/12/28 10:47:42;;;;;;;2.78;1.40;;;15.00;1.00;;;;;;5094195;28;20106;-38
2022/12/28 10:50:46;;;;;;;5.88;1.45;;;15.00;1.00;;;;;;5094244;28;20328;-39
2022/12/28 10:53:25;;;;;;;6.00;1.95;;;15.00;1.00;;;;;;5093681;28;20040;-39
2022/12/28 10:56:14;;;;;;;5.00;1.38;;;15.00;1.00;;;;;;5094196;28;20089;-38
2022/12/28 10:58:45;;;;;;;9.25;1.75;;;15.00;1.00;;;;;;5094077;28;20131;-39
2022/12/28 11:01:11;;;;;;;5.82;2.20;;;15.00;1.00;;;;;;5093862;28;20055;-39
2022/12/28 11:03:40;;;;;;;6.05;1.70;;;15.00;1.00;;;;;;5093608;28;20534;-38
2022/12/28 11:06:06;;;;;;;6.55;1.45;;;15.00;1.00;;;;;;5093660;28;20032;-39
2022/12/28 11:08:34;;;;;;;8.55;1.80;;;15.00;1.00;;;;;;5093877;28;20041;-38
2022/12/28 11:11:08;;;;;;;6.93;1.35;;;15.00;1.00;;;;;;5093854;28;20050;-38
2022/12/28 11:13:37;;;;;;;3.80;1.27;;;15.00;1.00;;;;;;5093333;28;20081;-38
2022/12/28 11:16:06;;;;;;;5.50;1.38;;;15.00;1.00;;;;;;5093577;28;20134;-39
2022/12/28 11:18:33;;;;;;;8.93;1.60;;;15.00;1.00;;;;;;5092665;28;20085;-38
2022/12/28 11:21:04;;;;;;;5.70;1.17;;;15.00;1.00;;;;;;5093590;28;20122;-38
2022/12/28 11:23:33;;;;;;;8.73;1.67;;;15.00;1.00;;;;;;5093257;28;20055;-38
2022/12/28 11:25:59;;;;;;;3.95;1.52;;;15.00;1.00;;;;;;5093412;28;20161;-38
2022/12/28 11:28:26;;;;;;;3.28;1.10;;;14.90;1.00;;;;;;5092102;28;20043;-39
2022/12/28 11:30:53;;;;;;;6.60;1.65;;;14.90;1.00;;;;;;5093357;28;20056;-38
2022/12/28 11:33:44;;;;;;;5.63;1.42;;;15.00;1.00;;;;;;5093091;28;20048;-38
2022/12/28 11:36:15;;;;;;;6.97;1.30;;;14.90;1.00;;;;;;5093284;28;20075;-38
2022/12/28 11:38:48;;;;;;;5.45;1.75;;;14.90;1.00;;;;;;5093202;28;20130;-38
2022/12/28 11:41:23;;;;;;;5.13;1.58;;;14.90;1.00;;;;;;5093319;28;20055;-38
2022/12/28 11:44:01;;;;;;;4.75;1.33;;;14.90;1.00;;;;;;5092902;28;20055;-39
2022/12/28 11:46:28;;;;;;;7.63;1.65;;;14.90;1.00;;;;;;5092727;28;20044;-38
2022/12/28 11:49:04;;;;;;;4.93;1.52;;;14.90;1.00;;;;;;5093165;28;20052;-38
2022/12/28 11:51:35;;;;;;;8.18;1.55;;;14.90;1.00;;;;;;5092933;28;20051;-38
2022/12/28 11:54:34;;;;;;;6.75;1.33;;;14.90;1.00;;;;;;5092608;28;20059;-38
2022/12/28 11:57:02;;;;;;;4.95;1.48;;;14.90;1.00;;;;;;5092801;28;20048;-38
2022/12/28 11:59:31;;;;;;;5.65;1.30;;;14.90;1.00;;;;;;5092945;28;20077;-38
2022/12/28 12:02:19;;;;;;;7.57;1.15;;;14.90;1.00;;;;;;5092918;28;20411;-38
2022/12/28 12:04:46;;;;;;;3.70;1.45;;;14.90;1.00;;;;;;5092511;28;20040;-38
2022/12/28 12:07:22;;;;;;;10.63;1.08;;;14.90;1.00;;;;;;5092842;28;20067;-38
2022/12/28 12:10:13;;;;;;;6.43;1.40;;;14.90;1.00;;;;;;5092739;28;20407;-38
2022/12/28 12:12:49;;;;;;;6.78;1.30;;;14.90;1.00;;;;;;5092312;28;20044;-38
2022/12/28 12:15:37;;;;;;;4.13;1.48;;;14.90;1.00;;;;;;5092538;28;20044;-39
2022/12/28 12:18:08;;;;;;;6.10;1.17;;;14.90;1.00;;;;;;5092419;28;20068;-39
2022/12/28 12:21:06;;;;;;;7.35;1.75;;;14.90;1.00;;;;;;5091137;28;20051;-38
2022/12/28 12:23:49;;;;;;;6.15;1.08;;;14.90;1.00;;;;;;5091997;28;20040;-38
2022/12/28 12:26:59;;;;;;;3.80;1.33;;;14.90;1.00;;;;;;5092233;28;20495;-38
2022/12/28 12:30:03;;;;;;;7.63;1.63;;;14.90;1.00;;;;;;5013830;28;20062;-39
2022/12/28 12:32:56;;;;;;;6.35;1.45;;;14.90;1.00;;;;;;5092022;28;20048;-38
2022/12/28 12:36:09;;;;;;;8.77;2.30;;;14.90;1.00;;;;;;5092082;28;20169;-38
2022/12/28 12:39:04;;;;;;;5.75;1.52;;;14.80;1.00;;;;;;5092128;28;20121;-38
2022/12/28 12:41:55;;;;;;;5.28;1.80;;;14.90;1.00;;;;;;5091979;28;20038;-38
2022/12/28 12:44:35;;;;;;;3.50;1.27;;;14.80;1.00;;;;;;5090645;28;20453;-38
2022/12/28 12:47:12;;;;;;;9.50;2.08;;;14.80;1.00;;;;;;5091644;28;20039;-38
2022/12/28 12:50:06;;;;;;;7.07;1.73;;;14.80;1.00;;;;;;5091956;28;20479;-38
2022/12/28 12:53:03;;;;;;;5.38;1.67;;;14.80;1.00;;;;;;5091735;28;20514;-38
2022/12/28 12:55:52;;;;;;;5.05;1.05;;;14.80;1.00;;;;;;5091951;28;20109;-38
2022/12/28 12:58:28;;;;;;;6.78;1.38;;;14.80;1.00;;;;;;5090578;28;20040;-38
2022/12/28 13:01:28;;;;;;;2.92;0.95;;;14.80;1.00;;;;;;5091879;28;20054;-38
2022/12/28 13:04:05;;;;;;;10.10;1.60;;;14.80;1.00;;;;;;5091263;28;20068;-38
2022/12/28 13:06:33;;;;;;;6.78;1.50;;;14.80;1.00;;;;;;5091472;28;20048;-38
2022/12/28 13:09:02;;;;;;;3.92;0.98;;;14.80;1.00;;;;;;5091831;28;20047;-39
2022/12/28 13:11:36;;;;;;;6.00;1.73;;;14.80;1.00;;;;;;5091690;28;20039;-38
2022/12/28 13:14:03;;;;;;;11.13;2.15;;;14.80;1.00;;;;;;5091822;28;20039;-38
2022/12/28 13:16:31;;;;;;;4.10;1.30;;;14.80;1.00;;;;;;5091592;28;20067;-39
2022/12/28 13:19:04;;;;;;;5.03;1.90;;;14.80;1.00;;;;;;5091599;28;20048;-39
2022/12/28 13:21:48;;;;;;;10.13;1.83;;;14.80;1.00;;;;;;5091633;28;20692;-38
2022/12/28 13:24:17;;;;;;;;;;;14.80;1.00;;;;;;5091825;28;20044;-38
2022/12/28 13:26:44;;;;;;;5.85;1.10;;;14.80;1.00;;;;;;5091399;28;19959;-38
2022/12/28 13:29:17;;;;;;;10.43;2.40;;;14.80;1.00;;;;;;5091670;28;20040;-38
2022/12/28 13:31:48;;;;;;;8.23;1.60;;;14.80;1.00;;;;;;5090253;28;20399;-38
2022/12/28 13:34:22;;;;;;;8.30;2.00;;;14.80;1.00;;;;;;5090223;28;20048;-38
2022/12/28 13:36:53;;;;;;;;;;;14.70;1.00;;;;;;5092059;28;20125;-38
2022/12/28 13:39:20;;;;;;;7.68;1.65;;;14.80;1.00;;;;;;5091753;28;19926;-38
2022/12/28 13:41:48;;;;;;;5.53;2.35;;;14.70;1.00;;;;;;5093721;28;20099;-38
2022/12/28 13:44:50;;;;;;;5.28;2.20;;;14.70;1.00;;;;;;5095373;28;20044;-38
2022/12/28 13:47:27;;;;;;;6.40;1.05;;;14.70;1.00;;;;;;5064215;28;20499;-38
2022/12/28 13:50:05;;;;;;;9.00;2.30;;;14.70;1.00;;;;;;5095689;28;20043;-38
2022/12/28 13:52:35;;;;;;;6.95;2.08;;;14.70;1.00;;;;;;5095335;28;20044;-38
2022/12/28 13:55:52;;;;;;;5.68;1.58;;;14.70;1.00;;;;;;5095445;28;20044;-38
2022/12/28 13:58:29;;;;;;;7.00;2.08;;;14.70;1.00;;;;;;5077234;28;20134;-38